Terminal Aerodrome Forecast
Issued by NWS

Current Version | Previous Version | Text Only | Print | Product List | Glossary Off
Versions: 1 2 3 4 5 6 7 8 9 10 11 12 13 14 15

000
FTUS41 KILN 201732
TAFLCK
TAF
KLCK 201732Z 2018/2118 20004KT P6SM SCT030 BKN080
     FM210000 VRB03KT P6SM BKN100
     FM210600 00000KT 5SM BR SCT250
     FM211000 00000KT 2SM BR SCT250
      TEMPO 2110/2113 1SM BR SCT002
     FM211400 VRB03KT P6SM FEW025 SCT200=

USA.gov is the U.S. government's official web portal to all federal, state and local government web resources and services.